Western Springs, IL (60558)

5:19 PM CST on November 17, 2017 (GMT -0600)
LaGrange SoFo | | Change Station

Elev 679 ft 41.80 °N, 87.88 °W | Updated 4 seconds ago

Thunderstorm
Thunderstorm
42.8 °F
Feels Like 43 °F
N
1.8
Wind Variable Wind from South
Gusts 2.5 mph

Today
High -- | Low -- °F
--% Chance of Precip.
Yesterday
High -- | Low -- °F
Precip. -- in
Pressure 29.70 in
Visibility 8.0 miles
Clouds Few 1800 ft
Overcast 2400 ft
Windchill 43 °F
Dew Point 41 °F
Humidity 94%
Rainfall 0.00 in
Snow Depth Not available.
6:43 AM 4:29 PM
Waning Crescent, 0% visible
SPECI KMDW 172304Z 16007G18KT 8SM -TSRA FEW018 OVC024CB 07/03 A2970 RMK AO2 LTG DSNT S AND SW TSB00 FRQ LTGICCG VC S-SW TS VC S-SW MOV NE P0000 T00670033
Pressure 29.70 in
Visibility 8.0 miles
Clouds Few 1800 ft
Overcast 2400 ft
Windchill 43 °F
Dew Point 41 °F
Humidity 94%
Rainfall 0.00 in
Snow Depth Not available.
6:43 AM 4:29 PM
Waning Crescent, 0% visible
SPECI KMDW 172304Z 16007G18KT 8SM -TSRA FEW018 OVC024CB 07/03 A2970 RMK AO2 LTG DSNT S AND SW TSB00 FRQ LTGICCG VC S-SW TS VC S-SW MOV NE P0000 T00670033

Get Severe Weather Alerts

Thanks for signing up!

Be on the lookout for a verification email in your inbox.

You'll start receiving the daily forecast at 6 AM.

×

10-Day Weather Forecast

Almanac

Astronomy

Nov. 17, 2017 Rise Set
Actual Time
Civil Twilight
Nautical Twilight
Astronomical Twilight
Moon
Length of Visible Light
Length of Day
Tomorrow will be .
, % of the Moon is Illuminated

Today's Extremes

State Highs State Lows

Community

WunderPhotos

Category 6

Welcome to Category 6. This is the collective home for Weather Underground's featured writeups by Dr. Jeff Masters (right), Bob Henson (left), Chris Burt, and other regular contributors.

Nearby

Air Quality

  Air Quality AQ Index Pollutant
Not available.

Snow Depth

Station Depth Elevation

Earthquake Activity

City Distance Mag. Time & Date
Minimum magnitude displayed is 2.5.

Coastal Water Temperatures

Place Temperature

Stations

Nearby Weather Stations

Station Location Temp. Windchill Dew Point Humidity Wind Precip. Elev Updated Type
                   

Watches & Warnings

There are currently no watches in effect.